Time;durP1;ratioP1;P1;durP2;ratioP2;P2;SDS_P1;SDS_P2;PMS_P1;PMS_P2;Temp;Humidity;BMP_temperature;BMP_pressure;BME280_temperature;BME280_humidity;BME280_pressure;Samples;Min_cycle;Max_cycle;Signal;HPM_P1;HPM_P2
2021/08/07 00:02:11;;;;;;;17.77;13.52;;;21.30;87.90;;;;;;5054260;28;20040;-76
2021/08/07 00:04:36;;;;;;;18.30;13.95;;;21.30;88.20;;;;;;5054840;28;20055;-74
2021/08/07 00:07:02;;;;;;;16.33;13.38;;;21.20;89.00;;;;;;5053191;28;20025;-74
2021/08/07 00:09:28;;;;;;;17.25;11.85;;;21.20;88.70;;;;;;5054553;28;20028;-74
2021/08/07 00:11:53;;;;;;;15.40;11.15;;;21.20;89.00;;;;;;5054433;28;20468;-75
2021/08/07 00:14:19;;;;;;;19.85;12.48;;;21.20;89.10;;;;;;5053904;28;20061;-76
2021/08/07 00:16:45;;;;;;;16.70;11.60;;;21.20;89.30;;;;;;5069980;28;20021;-75
2021/08/07 00:19:10;;;;;;;17.88;11.32;;;21.20;89.20;;;;;;5053922;28;20358;-75
2021/08/07 00:21:36;;;;;;;13.80;11.02;;;21.10;89.00;;;;;;5054511;28;20024;-75
2021/08/07 00:24:02;;;;;;;15.82;11.18;;;21.10;88.90;;;;;;5054297;28;20051;-73
2021/08/07 00:26:27;;;;;;;16.35;10.52;;;21.10;89.00;;;;;;5053815;28;20028;-74
2021/08/07 00:28:53;;;;;;;12.68;10.50;;;21.10;89.70;;;;;;5054309;28;20021;-74
2021/08/07 00:31:19;;;;;;;13.00;10.65;;;21.00;88.70;;;;;;5054227;28;20025;-77
2021/08/07 00:33:45;;;;;;;13.13;10.40;;;21.00;88.90;;;;;;5053662;28;20123;-74
2021/08/07 00:36:10;;;;;;;15.82;10.02;;;21.00;88.90;;;;;;5054471;28;20483;-73
2021/08/07 00:38:36;;;;;;;14.88;9.80;;;21.00;89.50;;;;;;5054376;28;20075;-75
2021/08/07 00:41:03;;;;;;;13.95;9.65;;;21.00;88.80;;;;;;5052739;28;20025;-74
2021/08/07 00:43:28;;;;;;;17.88;10.57;;;21.00;88.70;;;;;;5069247;28;20037;-74
2021/08/07 00:45:54;;;;;;;15.02;10.50;;;21.00;88.70;;;;;;5054246;28;20029;-75
2021/08/07 00:48:20;;;;;;;15.02;9.70;;;21.00;88.60;;;;;;5053982;28;20108;-78
2021/08/07 00:50:47;;;;;;;16.77;11.05;;;20.90;88.60;;;;;;5054362;28;20028;-74
2021/08/07 00:53:13;;;;;;;17.02;10.27;;;20.90;88.70;;;;;;5054045;28;20468;-74
2021/08/07 00:55:39;;;;;;;14.88;10.75;;;20.90;88.90;;;;;;5069146;28;20025;-75
2021/08/07 00:58:05;;;;;;;14.93;10.65;;;20.90;89.20;;;;;;5053677;28;20025;-73
2021/08/07 01:00:32;;;;;;;14.93;11.05;;;20.80;89.20;;;;;;5053957;28;20031;-75
2021/08/07 01:03:21;;;;;;;12.15;10.50;;;20.80;89.30;;;;;;5053728;28;20029;-75
2021/08/07 01:06:05;;;;;;;15.07;11.55;;;20.80;89.50;;;;;;5046719;28;20400;-73
2021/08/07 01:08:38;;;;;;;16.75;10.93;;;20.70;89.50;;;;;;5053765;28;20053;-74
2021/08/07 01:11:15;;;;;;;13.45;10.10;;;20.70;89.50;;;;;;5053794;28;20040;-74
2021/08/07 01:13:48;;;;;;;17.42;10.88;;;20.70;89.70;;;;;;5053442;28;20033;-74
2021/08/07 01:16:24;;;;;;;18.23;10.83;;;20.70;89.60;;;;;;5053271;28;20025;-74
2021/08/07 01:18:51;;;;;;;15.82;10.75;;;20.70;89.70;;;;;;5053506;28;20540;-74
2021/08/07 01:21:22;;;;;;;19.95;10.25;;;20.80;89.60;;;;;;5052260;28;20025;-74
2021/08/07 01:23:58;;;;;;;17.80;9.88;;;20.80;89.40;;;;;;5053128;28;20091;-74
2021/08/07 01:26:36;;;;;;;13.20;9.80;;;20.80;89.00;;;;;;5055572;28;20025;-74
2021/08/07 01:29:03;;;;;;;18.52;10.10;;;20.80;89.10;;;;;;5057486;28;20040;-74
2021/08/07 01:31:29;;;;;;;13.10;9.43;;;20.90;88.90;;;;;;5057131;28;20021;-74
2021/08/07 01:33:56;;;;;;;11.32;9.02;;;20.90;88.50;;;;;;5057050;28;20083;-74
2021/08/07 01:36:21;;;;;;;15.63;9.43;;;20.90;88.00;;;;;;5057078;28;20380;-74
2021/08/07 01:38:47;;;;;;;11.35;8.93;;;20.90;87.90;;;;;;5057048;28;20029;-73
2021/08/07 01:41:18;;;;;;;11.77;8.50;;;20.90;87.70;;;;;;5057328;28;20376;-74
2021/08/07 01:43:45;;;;;;;15.63;9.10;;;20.90;87.40;;;;;;5057802;28;20029;-75
2021/08/07 01:46:12;;;;;;;13.82;9.63;;;20.90;87.40;;;;;;5057501;28;20032;-74
2021/08/07 01:49:08;;;;;;;15.60;9.40;;;20.90;87.10;;;;;;5055692;28;20460;-73
2021/08/07 01:51:54;;;;;;;17.40;9.35;;;20.90;87.20;;;;;;5057426;28;20071;-75
2021/08/07 01:54:29;;;;;;;14.77;9.40;;;20.90;87.20;;;;;;5017302;28;20069;-74
2021/08/07 01:56:56;;;;;;;14.90;10.00;;;20.80;87.20;;;;;;5017294;28;20351;-74
2021/08/07 01:59:23;;;;;;;15.15;10.05;;;20.80;87.30;;;;;;5016959;28;20413;-74
2021/08/07 02:01:50;;;;;;;12.05;9.45;;;20.80;87.30;;;;;;5017516;28;20030;-75
2021/08/07 02:04:18;;;;;;;14.75;10.35;;;20.70;87.20;;;;;;5017173;28;20355;-73
2021/08/07 02:06:44;;;;;;;14.48;10.23;;;20.70;87.40;;;;;;5016966;28;20542;-74
2021/08/07 02:09:11;;;;;;;11.93;10.35;;;20.70;87.40;;;;;;5017017;28;20088;-75
2021/08/07 02:11:41;;;;;;;15.20;11.00;;;20.70;87.60;;;;;;5015986;28;20117;-73
2021/08/07 02:14:08;;;;;;;15.77;11.18;;;20.70;87.50;;;;;;5017144;28;20469;-75
2021/08/07 02:16:38;;;;;;;14.20;10.27;;;20.70;87.50;;;;;;5016645;28;20033;-75
2021/08/07 02:19:05;;;;;;;14.63;10.38;;;20.60;87.70;;;;;;5017151;28;20029;-75
2021/08/07 02:21:32;;;;;;;14.00;10.38;;;20.70;87.80;;;;;;5017322;28;20163;-75
2021/08/07 02:23:58;;;;;;;13.77;9.70;;;20.70;87.70;;;;;;5015494;28;20041;-73
2021/08/07 02:26:25;;;;;;;12.43;10.05;;;20.70;87.40;;;;;;5016208;28;20029;-72
2021/08/07 02:28:51;;;;;;;14.63;11.05;;;20.60;87.40;;;;;;5016722;28;20022;-73
2021/08/07 02:31:19;;;;;;;13.80;10.00;;;20.60;87.40;;;;;;5016761;28;20164;-74
2021/08/07 02:33:45;;;;;;;15.55;10.98;;;20.60;87.50;;;;;;5016430;28;20038;-74
2021/08/07 02:36:13;;;;;;;13.57;10.40;;;20.60;88.00;;;;;;5016572;28;20030;-74
2021/08/07 02:38:40;;;;;;;16.23;10.45;;;20.60;87.30;;;;;;5015631;28;20467;-74
2021/08/07 02:41:06;;;;;;;14.15;10.35;;;20.60;87.50;;;;;;5016464;28;20111;-74
2021/08/07 02:43:33;;;;;;;15.57;10.40;;;20.60;87.50;;;;;;5015655;28;20061;-75
2021/08/07 02:45:59;;;;;;;15.70;10.68;;;20.60;87.50;;;;;;5031580;28;20030;-74
2021/08/07 02:48:27;;;;;;;16.27;10.40;;;20.60;87.50;;;;;;5014938;28;20022;-75
2021/08/07 02:50:54;;;;;;;12.75;9.82;;;20.60;87.50;;;;;;5015914;28;20470;-76
2021/08/07 02:53:20;;;;;;;11.52;9.60;;;20.60;87.50;;;;;;5042258;28;20052;-74
2021/08/07 02:55:46;;;;;;;15.40;10.60;;;20.50;87.30;;;;;;5055857;28;20027;-74
2021/08/07 02:58:13;;;;;;;15.88;10.82;;;20.50;87.40;;;;;;5056367;28;20067;-74
2021/08/07 03:00:39;;;;;;;12.27;10.25;;;20.50;87.40;;;;;;5056214;28;20025;-74
2021/08/07 03:03:05;;;;;;;19.23;10.70;;;20.50;87.50;;;;;;5055506;28;20092;-75
2021/08/07 03:05:31;;;;;;;14.95;11.07;;;20.40;87.50;;;;;;5056209;28;20032;-74
2021/08/07 03:07:57;;;;;;;15.43;11.00;;;20.40;87.60;;;;;;5055418;28;20036;-74
2021/08/07 03:10:24;;;;;;;13.05;10.18;;;20.40;87.80;;;;;;5054193;28;20047;-75
2021/08/07 03:12:52;;;;;;;16.83;11.10;;;20.30;87.80;;;;;;5055727;28;20028;-75
2021/08/07 03:15:23;;;;;;;16.35;12.18;;;20.30;88.10;;;;;;5055983;28;20033;-75
2021/08/07 03:17:49;;;;;;;16.25;11.43;;;20.20;88.30;;;;;;5055718;28;20033;-74
2021/08/07 03:20:16;;;;;;;16.75;11.10;;;20.20;88.50;;;;;;5055308;28;20029;-74
2021/08/07 03:22:41;;;;;;;15.50;11.82;;;20.20;88.60;;;;;;5055880;28;20036;-74
2021/08/07 03:25:08;;;;;;;15.38;10.90;;;20.20;88.70;;;;;;5055035;28;20029;-74
2021/08/07 03:27:34;;;;;;;15.00;10.32;;;20.20;88.90;;;;;;5054911;28;20112;-74
2021/08/07 03:30:00;;;;;;;14.50;10.18;;;20.20;88.90;;;;;;5055285;28;20519;-75
2021/08/07 03:32:25;;;;;;;20.13;10.77;;;20.10;88.90;;;;;;5054298;28;20399;-74
2021/08/07 03:34:51;;;;;;;14.40;10.55;;;20.20;89.10;;;;;;5055621;28;20379;-74
2021/08/07 03:37:17;;;;;;;18.88;10.65;;;20.20;89.20;;;;;;5055447;28;20437;-74
2021/08/07 03:39:43;;;;;;;12.88;10.13;;;20.10;89.30;;;;;;5055004;28;20033;-74
2021/08/07 03:42:08;;;;;;;15.63;10.48;;;20.10;89.30;;;;;;5055275;28;20052;-74
2021/08/07 03:44:34;;;;;;;16.83;10.25;;;20.10;89.30;;;;;;5054941;28;20029;-74
2021/08/07 03:47:00;;;;;;;18.10;12.02;;;20.10;89.60;;;;;;5054636;28;20025;-74
2021/08/07 03:49:25;;;;;;;17.02;10.43;;;20.20;89.80;;;;;;5054533;28;20052;-73
2021/08/07 03:51:51;;;;;;;14.48;10.10;;;20.10;90.00;;;;;;5054334;28;20028;-74
2021/08/07 03:54:17;;;;;;;16.98;10.73;;;20.20;90.00;;;;;;5053372;28;20044;-74
2021/08/07 03:56:43;;;;;;;15.73;10.18;;;20.30;90.00;;;;;;5053486;28;20028;-75
2021/08/07 03:59:09;;;;;;;13.85;9.75;;;20.30;90.00;;;;;;5054382;28;20025;-74
2021/08/07 04:01:35;;;;;;;10.65;9.55;;;20.40;89.90;;;;;;5054801;28;20032;-76
2021/08/07 04:04:00;;;;;;;15.00;9.70;;;20.40;89.80;;;;;;5054237;28;20029;-75
2021/08/07 04:06:26;;;;;;;11.60;9.32;;;20.50;89.80;;;;;;5054776;28;20368;-75
2021/08/07 04:08:52;;;;;;;11.50;9.32;;;20.50;89.60;;;;;;5054518;28;20021;-75
2021/08/07 04:11:17;;;;;;;12.02;8.95;;;20.60;89.70;;;;;;5054761;28;20131;-74
2021/08/07 04:13:43;;;;;;;15.40;9.82;;;20.60;89.40;;;;;;5054576;28;20091;-74
2021/08/07 04:16:09;;;;;;;14.40;9.52;;;20.60;89.30;;;;;;5055005;28;20029;-74
2021/08/07 04:18:34;;;;;;;12.70;9.20;;;20.70;89.20;;;;;;5055314;28;20416;-75
2021/08/07 04:21:00;;;;;;;15.35;10.75;;;20.70;89.10;;;;;;5054129;28;20021;-73
2021/08/07 04:23:26;;;;;;;18.58;9.80;;;20.70;89.10;;;;;;5054616;28;20029;-72
2021/08/07 04:25:52;;;;;;;14.32;9.70;;;20.80;89.00;;;;;;5053074;28;20029;-73
2021/08/07 04:28:18;;;;;;;13.80;9.88;;;20.80;88.80;;;;;;5054185;28;20033;-74
2021/08/07 04:30:44;;;;;;;13.18;10.15;;;20.90;88.70;;;;;;5053761;28;20100;-74
2021/08/07 04:33:10;;;;;;;14.32;9.90;;;20.90;88.40;;;;;;5054023;28;20045;-74
2021/08/07 04:35:36;;;;;;;13.25;9.63;;;21.00;88.30;;;;;;5052695;28;20074;-75
2021/08/07 04:38:02;;;;;;;13.18;10.98;;;21.00;88.20;;;;;;5053860;28;20376;-74
2021/08/07 04:40:29;;;;;;;16.42;10.18;;;21.00;88.20;;;;;;5054179;28;20027;-75
2021/08/07 04:42:55;;;;;;;12.77;9.82;;;21.00;88.50;;;;;;5053782;28;20370;-74
2021/08/07 04:45:21;;;;;;;16.98;10.18;;;21.10;88.30;;;;;;5053958;28;20031;-75
2021/08/07 04:48:00;;;;;;;15.38;11.57;;;21.10;88.00;;;;;;5053828;28;20103;-74
2021/08/07 04:50:29;;;;;;;19.02;14.82;;;21.20;87.50;;;;;;5053482;28;20048;-75
2021/08/07 04:52:55;;;;;;;18.60;13.60;;;21.30;86.90;;;;;;5053523;28;20052;-75
2021/08/07 04:55:21;;;;;;;21.42;15.10;;;21.20;86.90;;;;;;5053623;28;20049;-75
2021/08/07 04:57:47;;;;;;;22.05;15.77;;;21.30;87.00;;;;;;5053399;28;20025;-75
2021/08/07 05:00:14;;;;;;;23.80;17.25;;;21.30;87.10;;;;;;5052772;28;20427;-74
2021/08/07 05:02:40;;;;;;;23.38;17.50;;;21.40;86.70;;;;;;5052307;28;20037;-75
2021/08/07 05:05:06;;;;;;;26.75;20.02;;;21.50;86.60;;;;;;5053107;28;20036;-74
2021/08/07 05:07:32;;;;;;;30.40;21.05;;;21.60;86.00;;;;;;5053697;28;20027;-76
2021/08/07 05:10:00;;;;;;;30.77;21.73;;;21.70;85.70;;;;;;5053463;28;20064;-74
2021/08/07 05:12:48;;;;;;;33.40;22.13;;;21.70;85.40;;;;;;5053656;28;20024;-74
2021/08/07 05:15:16;;;;;;;31.50;24.33;;;21.70;85.20;;;;;;5053518;28;20038;-75
2021/08/07 05:17:42;;;;;;;38.13;25.10;;;21.80;85.30;;;;;;5052265;28;20473;-75
2021/08/07 05:20:09;;;;;;;39.20;26.20;;;21.90;84.90;;;;;;5053556;28;20029;-75
2021/08/07 05:22:35;;;;;;;37.35;25.70;;;22.10;84.50;;;;;;5053771;28;20358;-75
2021/08/07 05:25:01;;;;;;;37.67;25.98;;;22.20;84.00;;;;;;5053498;28;20029;-75
2021/08/07 05:27:26;;;;;;;47.80;28.95;;;22.30;83.50;;;;;;5053486;28;20067;-74
2021/08/07 05:29:52;;;;;;;47.67;31.20;;;22.30;83.10;;;;;;5053133;28;20467;-74
2021/08/07 05:32:18;;;;;;;48.85;31.52;;;22.30;82.80;;;;;;5053432;28;20082;-74
2021/08/07 05:34:44;;;;;;;57.75;34.00;;;22.30;82.40;;;;;;5068762;28;20534;-75
2021/08/07 05:37:09;;;;;;;49.85;32.40;;;22.20;82.20;;;;;;5053896;28;20037;-75
2021/08/07 05:39:35;;;;;;;50.88;32.75;;;22.10;82.50;;;;;;5053373;28;20159;-75
2021/08/07 05:42:01;;;;;;;52.00;31.23;;;22.10;82.80;;;;;;5053450;28;20032;-73
2021/08/07 05:44:26;;;;;;;59.45;35.97;;;22.00;82.90;;;;;;5052837;28;20033;-74
2021/08/07 05:46:52;;;;;;;51.65;33.80;;;21.90;83.00;;;;;;5053469;28;20029;-73
2021/08/07 05:49:18;;;;;;;53.20;33.65;;;21.80;83.30;;;;;;5052787;28;20028;-73
2021/08/07 05:51:43;;;;;;;58.47;35.35;;;21.80;83.60;;;;;;5053082;28;20025;-75
2021/08/07 05:54:09;;;;;;;55.78;35.00;;;21.70;83.80;;;;;;5053079;28;20080;-74
2021/08/07 05:56:35;;;;;;;54.92;34.33;;;21.70;84.10;;;;;;5052012;28;20099;-76
2021/08/07 05:59:01;;;;;;;53.90;33.80;;;21.80;84.30;;;;;;5053505;28;20025;-74
2021/08/07 06:01:26;;;;;;;62.72;34.92;;;21.90;84.40;;;;;;5053612;28;20085;-76
2021/08/07 06:03:52;;;;;;;52.75;33.88;;;22.00;84.20;;;;;;5053238;28;20040;-75
2021/08/07 06:06:18;;;;;;;54.05;34.17;;;22.10;83.80;;;;;;5053320;28;20108;-76
2021/08/07 06:08:43;;;;;;;53.45;32.00;;;22.10;83.60;;;;;;5052036;28;20025;-75
2021/08/07 06:11:09;;;;;;;53.47;32.95;;;22.10;83.40;;;;;;5052885;28;20503;-75
2021/08/07 06:13:35;;;;;;;56.10;33.35;;;22.10;83.40;;;;;;5055252;28;20029;-76
2021/08/07 06:16:01;;;;;;;47.17;31.80;;;22.20;83.60;;;;;;5056282;28;20021;-75
2021/08/07 06:18:26;;;;;;;46.90;30.80;;;22.40;83.40;;;;;;5055239;28;20476;-75
2021/08/07 06:20:52;;;;;;;44.88;30.38;;;22.50;82.80;;;;;;5057374;28;20029;-76
2021/08/07 06:23:18;;;;;;;45.72;31.45;;;22.60;82.40;;;;;;5055050;28;20029;-75
2021/08/07 06:25:44;;;;;;;40.40;27.85;;;22.80;81.90;;;;;;5055694;28;20517;-75
2021/08/07 06:28:10;;;;;;;38.85;27.13;;;22.80;81.40;;;;;;5056359;28;20056;-74
2021/08/07 06:30:42;;;;;;;40.72;28.13;;;22.90;81.20;;;;;;5056393;28;20094;-75
2021/08/07 06:33:08;;;;;;;37.38;25.75;;;23.00;80.80;;;;;;5054932;28;20072;-75
2021/08/07 06:35:34;;;;;;;35.88;25.42;;;23.20;80.80;;;;;;5056296;28;20087;-75
2021/08/07 06:38:00;;;;;;;32.72;22.70;;;23.30;80.50;;;;;;5056688;28;20032;-75
2021/08/07 06:40:26;;;;;;;29.70;22.23;;;23.60;80.10;;;;;;5056392;28;20028;-75
2021/08/07 06:42:51;;;;;;;28.80;20.33;;;23.80;79.90;;;;;;5055805;28;20518;-75
2021/08/07 06:45:17;;;;;;;28.23;22.27;;;24.00;78.50;;;;;;5056908;28;20072;-75
2021/08/07 06:47:44;;;;;;;25.60;19.80;;;24.10;77.90;;;;;;5056148;28;20017;-76
2021/08/07 06:50:10;;;;;;;27.88;19.85;;;24.20;77.40;;;;;;5056318;28;20063;-75
2021/08/07 06:52:36;;;;;;;24.98;19.80;;;24.40;77.30;;;;;;5056018;28;20044;-75
2021/08/07 06:55:03;;;;;;;22.35;17.33;;;24.60;77.30;;;;;;5054546;28;20079;-75
2021/08/07 06:57:28;;;;;;;21.08;16.20;;;24.90;75.80;;;;;;5054622;28;20072;-75
2021/08/07 06:59:54;;;;;;;22.95;15.48;;;25.10;75.00;;;;;;5055801;28;20059;-74
2021/08/07 07:02:20;;;;;;;21.00;15.32;;;25.20;74.20;;;;;;5055756;28;20029;-74
2021/08/07 07:04:46;;;;;;;16.23;13.80;;;25.20;73.40;;;;;;5055601;28;20048;-75
2021/08/07 07:07:12;;;;;;;18.00;13.15;;;25.30;72.90;;;;;;5055215;28;20029;-75
2021/08/07 07:09:38;;;;;;;15.15;12.93;;;25.40;72.70;;;;;;5056118;28;20518;-77
2021/08/07 07:12:04;;;;;;;16.88;12.93;;;25.50;72.40;;;;;;5056111;28;20373;-75
2021/08/07 07:14:31;;;;;;;14.32;12.05;;;25.70;71.90;;;;;;5055500;28;20376;-74
2021/08/07 07:16:57;;;;;;;15.05;11.43;;;25.90;71.20;;;;;;5054360;28;20021;-74
2021/08/07 07:19:25;;;;;;;15.70;11.00;;;26.00;70.90;;;;;;5055090;28;20380;-75
2021/08/07 07:21:51;;;;;;;11.85;8.93;;;26.00;70.60;;;;;;5055342;28;20029;-75
2021/08/07 07:24:17;;;;;;;11.38;8.23;;;25.90;70.00;;;;;;5055316;28;20037;-75
2021/08/07 07:26:43;;;;;;;10.15;8.25;;;25.90;70.00;;;;;;5055019;28;20025;-75
2021/08/07 07:29:08;;;;;;;11.57;8.35;;;25.80;70.00;;;;;;5055199;28;20021;-75
2021/08/07 07:31:35;;;;;;;10.20;7.80;;;25.80;69.80;;;;;;5055818;28;20354;-74
2021/08/07 07:34:01;;;;;;;9.80;7.22;;;25.80;69.90;;;;;;5054018;28;20057;-74
2021/08/07 07:36:26;;;;;;;8.75;6.88;;;25.80;69.50;;;;;;5055113;28;20075;-75
2021/08/07 07:38:52;;;;;;;9.38;7.43;;;25.90;69.30;;;;;;5055553;28;20045;-73
2021/08/07 07:41:18;;;;;;;9.68;6.85;;;26.00;68.90;;;;;;5054873;28;20431;-73
2021/08/07 07:43:44;;;;;;;7.88;7.03;;;26.20;68.50;;;;;;5056229;28;20029;-76
2021/08/07 07:46:10;;;;;;;7.75;6.47;;;26.30;68.00;;;;;;5057311;28;20477;-75
2021/08/07 07:48:45;;;;;;;8.50;7.35;;;26.40;67.70;;;;;;5056407;28;20025;-74
2021/08/07 07:51:11;;;;;;;8.52;6.90;;;26.50;67.00;;;;;;5056503;28;20025;-74
2021/08/07 07:53:36;;;;;;;8.23;6.72;;;26.50;66.60;;;;;;5055331;28;20421;-74
2021/08/07 07:56:07;;;;;;;9.70;6.88;;;26.50;66.80;;;;;;5055188;28;20070;-75
2021/08/07 07:58:33;;;;;;;7.30;6.50;;;26.60;66.30;;;;;;5055578;28;20120;-76
2021/08/07 08:00:59;;;;;;;10.30;6.60;;;26.50;65.90;;;;;;5053868;28;20047;-75
2021/08/07 08:03:27;;;;;;;7.35;6.55;;;26.50;65.80;;;;;;5055277;28;20025;-75
2021/08/07 08:05:54;;;;;;;10.68;6.20;;;26.50;66.10;;;;;;5055052;28;20025;-75
2021/08/07 08:08:20;;;;;;;8.40;6.22;;;26.60;65.50;;;;;;5053780;28;20036;-74
2021/08/07 08:10:46;;;;;;;7.57;6.03;;;26.70;65.20;;;;;;5054514;28;20017;-75
2021/08/07 08:13:29;;;;;;;6.43;5.63;;;26.70;65.00;;;;;;5054698;28;20033;-73
2021/08/07 08:16:10;;;;;;;9.30;6.13;;;26.80;64.20;;;;;;5053199;28;20385;-74
2021/08/07 08:18:37;;;;;;;12.57;5.50;;;26.80;64.10;;;;;;5054578;28;20021;-74
2021/08/07 08:21:02;;;;;;;9.23;5.75;;;26.90;64.10;;;;;;5054238;28;20033;-74
2021/08/07 08:23:28;;;;;;;9.55;5.43;;;27.00;63.50;;;;;;5054285;28;20139;-74
2021/08/07 08:25:54;;;;;;;13.40;5.65;;;27.10;63.00;;;;;;5054201;28;20029;-74
2021/08/07 08:28:24;;;;;;;12.27;6.18;;;27.20;62.90;;;;;;5054086;28;20055;-74
2021/08/07 08:30:53;;;;;;;8.77;5.45;;;27.20;62.50;;;;;;5053779;28;20392;-75
2021/08/07 08:33:19;;;;;;;12.50;5.10;;;27.40;62.40;;;;;;5053769;28;20037;-74
2021/08/07 08:35:46;;;;;;;9.27;5.63;;;27.50;61.60;;;;;;5053713;28;20025;-75
2021/08/07 08:38:12;;;;;;;8.82;5.97;;;27.50;61.20;;;;;;5054035;28;20079;-76
2021/08/07 08:40:38;;;;;;;10.40;5.68;;;27.60;61.00;;;;;;5054027;28;20422;-76
2021/08/07 08:43:04;;;;;;;9.10;6.00;;;27.70;61.20;;;;;;5052625;28;20504;-75
2021/08/07 08:45:30;;;;;;;9.00;5.72;;;27.90;61.10;;;;;;5054000;28;20025;-75
2021/08/07 08:47:56;;;;;;;9.48;5.80;;;28.30;60.30;;;;;;5053870;28;20111;-75
2021/08/07 08:50:22;;;;;;;6.03;5.43;;;28.70;60.10;;;;;;5053772;28;20021;-75
2021/08/07 08:52:49;;;;;;;8.55;4.68;;;29.00;59.20;;;;;;5053593;28;20060;-75
2021/08/07 08:55:15;;;;;;;7.47;5.35;;;29.40;58.60;;;;;;5053771;28;20033;-75
2021/08/07 08:57:43;;;;;;;8.35;4.65;;;29.70;57.70;;;;;;5054119;28;20052;-75
2021/08/07 09:00:10;;;;;;;7.05;4.75;;;29.80;57.20;;;;;;5053366;28;20021;-75
2021/08/07 09:02:37;;;;;;;5.43;4.50;;;30.10;56.90;;;;;;5053461;28;20021;-75
2021/08/07 09:05:05;;;;;;;6.55;4.80;;;30.30;56.20;;;;;;5053704;28;20029;-75
2021/08/07 09:07:31;;;;;;;6.68;4.40;;;30.60;55.70;;;;;;5053639;28;20033;-75
2021/08/07 09:09:57;;;;;;;5.80;4.95;;;30.80;55.20;;;;;;5053893;28;20448;-75
2021/08/07 09:12:43;;;;;;;5.65;5.15;;;30.90;54.70;;;;;;5053662;28;20032;-75
2021/08/07 09:15:30;;;;;;;6.88;5.15;;;30.80;54.40;;;;;;5053997;28;20048;-75
2021/08/07 09:18:24;;;;;;;5.55;4.72;;;30.50;54.80;;;;;;5053597;28;20083;-75
2021/08/07 09:20:54;;;;;;;7.00;4.78;;;30.50;55.70;;;;;;5051525;28;20190;-75
2021/08/07 09:23:35;;;;;;;5.07;4.57;;;30.80;55.70;;;;;;5052238;28;20138;-74
2021/08/07 09:26:13;;;;;;;5.63;4.18;;;31.10;55.00;;;;;;5053272;28;20025;-74
2021/08/07 09:28:50;;;;;;;4.53;3.90;;;31.60;54.20;;;;;;5053470;28;20029;-75
2021/08/07 09:31:16;;;;;;;3.80;3.50;;;32.10;53.10;;;;;;5053325;28;20025;-74
2021/08/07 09:33:41;;;;;;;4.13;3.80;;;32.30;52.10;;;;;;5052072;28;20033;-75
2021/08/07 09:36:07;;;;;;;7.28;3.17;;;32.20;51.00;;;;;;5053379;28;20044;-75
2021/08/07 09:38:43;;;;;;;4.70;3.58;;;32.00;50.90;;;;;;5052012;28;20021;-76
2021/08/07 09:41:13;;;;;;;5.38;3.00;;;32.20;50.50;;;;;;5054796;28;20025;-75
2021/08/07 09:44:23;;;;;;;3.50;3.20;;;32.40;50.50;;;;;;5056520;28;20112;-73
2021/08/07 09:47:01;;;;;;;3.40;3.10;;;32.90;50.50;;;;;;5057509;28;20088;-74
2021/08/07 09:49:53;;;;;;;3.80;3.50;;;33.40;49.80;;;;;;5057085;28;20029;-75
2021/08/07 09:52:20;;;;;;;3.20;2.90;;;33.50;49.40;;;;;;5057009;28;20101;-73
2021/08/07 09:54:48;;;;;;;3.40;3.20;;;33.60;50.20;;;;;;5060032;28;20025;-74
2021/08/07 09:57:28;;;;;;;3.50;3.20;;;33.90;48.80;;;;;;5059003;28;20033;-73
2021/08/07 09:59:54;;;;;;;2.67;2.30;;;34.20;48.40;;;;;;5058410;28;20017;-74
2021/08/07 10:02:30;;;;;;;2.90;2.70;;;34.40;46.90;;;;;;5057495;28;20052;-73
2021/08/07 10:04:59;;;;;;;2.63;2.42;;;34.40;46.00;;;;;;5057244;28;20032;-74
2021/08/07 10:07:27;;;;;;;3.15;2.85;;;34.30;46.40;;;;;;5056760;28;20033;-74
2021/08/07 10:09:53;;;;;;;3.35;2.88;;;34.40;46.10;;;;;;5056421;28;20017;-75
2021/08/07 10:12:19;;;;;;;3.33;2.90;;;34.40;46.40;;;;;;5056897;28;20074;-75
2021/08/07 10:14:48;;;;;;;2.58;2.45;;;34.80;46.30;;;;;;5057068;28;20033;-74
2021/08/07 10:17:17;;;;;;;3.45;2.42;;;35.20;45.50;;;;;;5072351;28;20056;-75
2021/08/07 10:19:45;;;;;;;2.60;2.40;;;35.60;45.00;;;;;;5057143;28;20021;-73
2021/08/07 10:22:13;;;;;;;2.53;2.30;;;35.90;44.40;;;;;;5056313;28;20028;-76
2021/08/07 10:24:43;;;;;;;3.08;2.88;;;36.10;44.30;;;;;;5055150;28;20025;-74
2021/08/07 10:27:09;;;;;;;3.17;2.88;;;36.40;43.60;;;;;;5056474;28;20052;-74
2021/08/07 10:29:48;;;;;;;2.85;2.65;;;36.60;43.50;;;;;;5056729;28;20028;-74
2021/08/07 10:32:15;;;;;;;2.60;2.40;;;36.90;43.10;;;;;;5056301;28;20021;-75
2021/08/07 10:34:48;;;;;;;5.22;2.60;;;37.10;43.20;;;;;;5056458;28;20064;-75
2021/08/07 10:37:14;;;;;;;3.95;2.97;;;37.40;42.80;;;;;;5056317;28;20028;-76
2021/08/07 10:39:40;;;;;;;3.03;2.50;;;37.70;42.70;;;;;;5054766;28;20041;-75
2021/08/07 10:42:08;;;;;;;8.00;2.50;;;38.10;42.40;;;;;;5056577;28;20036;-76
2021/08/07 10:44:35;;;;;;;3.80;2.70;;;38.30;41.90;;;;;;5056536;28;20060;-74
2021/08/07 10:47:02;;;;;;;2.70;2.50;;;38.40;41.80;;;;;;5056784;28;20075;-75
2021/08/07 10:49:42;;;;;;;2.45;2.25;;;38.60;41.60;;;;;;5056193;28;20103;-75
2021/08/07 10:52:22;;;;;;;5.00;2.30;;;38.80;41.20;;;;;;5056250;28;20035;-74
2021/08/07 10:54:53;;;;;;;4.03;2.40;;;38.90;40.70;;;;;;5055982;28;20029;-75
2021/08/07 10:57:39;;;;;;;2.45;2.30;;;39.00;40.50;;;;;;5055865;28;20024;-74
2021/08/07 11:00:25;;;;;;;2.70;2.50;;;39.00;40.50;;;;;;5055990;28;20021;-76
2021/08/07 11:03:12;;;;;;;2.67;2.47;;;39.10;40.50;;;;;;5055240;28;20064;-74
2021/08/07 11:05:54;;;;;;;3.25;2.40;;;39.20;40.20;;;;;;5055934;28;20033;-74
2021/08/07 11:08:20;;;;;;;2.53;2.35;;;39.30;39.90;;;;;;5037952;28;20040;-75
2021/08/07 11:10:46;;;;;;;3.03;2.13;;;39.50;40.00;;;;;;5054152;28;20025;-75
2021/08/07 11:13:26;;;;;;;2.40;2.30;;;39.60;40.00;;;;;;5055495;28;20098;-76
2021/08/07 11:16:18;;;;;;;3.22;2.92;;;39.70;39.80;;;;;;5055568;28;20121;-75
2021/08/07 11:18:43;;;;;;;2.67;2.40;;;39.90;39.60;;;;;;5055331;28;20036;-75
2021/08/07 11:21:48;;;;;;;3.33;2.40;;;39.70;39.70;;;;;;5055267;28;20469;-75
2021/08/07 11:24:47;;;;;;;2.30;2.20;;;38.80;40.20;;;;;;5055731;28;20469;-74
2021/08/07 11:27:16;;;;;;;3.58;2.50;;;37.60;40.50;;;;;;5054359;28;20025;-75
2021/08/07 11:30:19;;;;;;;2.75;2.50;;;36.50;41.30;;;;;;5055903;28;20448;-75
2021/08/07 11:33:11;;;;;;;2.70;2.35;;;35.40;42.10;;;;;;5054106;28;20029;-75
2021/08/07 11:35:50;;;;;;;3.80;2.40;;;34.40;42.70;;;;;;5053596;28;20040;-74
2021/08/07 11:39:10;;;;;;;3.33;1.95;;;33.80;42.90;;;;;;5054279;28;20118;-75
2021/08/07 11:41:39;;;;;;;3.45;2.40;;;33.30;43.30;;;;;;5055265;28;20028;-76
2021/08/07 11:44:05;;;;;;;2.47;2.28;;;33.30;43.80;;;;;;5055177;28;20025;-76
2021/08/07 11:46:33;;;;;;;2.58;2.38;;;33.80;43.70;;;;;;5055097;28;20029;-77
2021/08/07 11:48:59;;;;;;;3.05;2.40;;;34.90;42.80;;;;;;5055023;28;20029;-75
2021/08/07 11:51:27;;;;;;;3.13;2.10;;;35.80;41.90;;;;;;5055153;28;20021;-74
2021/08/07 11:53:53;;;;;;;2.58;2.10;;;36.30;40.80;;;;;;5055139;28;20052;-75
2021/08/07 11:56:21;;;;;;;5.80;2.10;;;36.30;40.20;;;;;;5055033;28;20449;-75
2021/08/07 11:58:49;;;;;;;2.42;2.22;;;36.00;40.30;;;;;;5053781;28;20033;-75
2021/08/07 12:01:16;;;;;;;3.40;2.63;;;35.40;40.60;;;;;;5054245;28;20032;-76
2021/08/07 12:03:44;;;;;;;2.60;2.30;;;34.80;40.80;;;;;;5054587;28;20029;-75
2021/08/07 12:06:12;;;;;;;2.80;2.58;;;34.10;41.00;;;;;;5054559;28;20029;-75
2021/08/07 12:08:38;;;;;;;2.40;2.20;;;33.50;41.70;;;;;;5054627;28;20464;-74
2021/08/07 12:11:07;;;;;;;2.60;2.40;;;33.00;42.30;;;;;;5053780;28;20029;-75
2021/08/07 12:13:34;;;;;;;3.15;2.20;;;32.50;42.40;;;;;;5055214;28;20124;-75
2021/08/07 12:16:03;;;;;;;2.72;2.28;;;32.10;42.70;;;;;;5055142;28;20037;-75
2021/08/07 12:18:40;;;;;;;2.80;2.60;;;31.80;43.10;;;;;;5054669;28;20051;-75
2021/08/07 12:21:06;;;;;;;2.67;2.47;;;31.50;43.40;;;;;;5054649;28;20150;-76
2021/08/07 12:23:43;;;;;;;3.50;2.50;;;31.30;43.70;;;;;;5054446;28;20029;-75
2021/08/07 12:26:08;;;;;;;2.70;2.33;;;31.00;44.00;;;;;;5054228;28;20028;-75
2021/08/07 12:28:34;;;;;;;2.60;2.40;;;30.80;44.40;;;;;;5054756;28;20029;-74
2021/08/07 12:31:02;;;;;;;2.63;2.13;;;30.50;44.60;;;;;;5054488;28;20171;-75
2021/08/07 12:33:31;;;;;;;4.47;2.30;;;30.30;44.50;;;;;;5054054;28;20167;-74
2021/08/07 12:35:57;;;;;;;3.13;2.33;;;30.10;45.10;;;;;;5053915;28;20020;-75
2021/08/07 12:38:26;;;;;;;4.05;2.40;;;29.90;45.40;;;;;;5054359;28;20468;-74
2021/08/07 12:40:59;;;;;;;6.22;2.22;;;29.60;45.60;;;;;;5054091;28;20021;-74
2021/08/07 12:43:30;;;;;;;2.90;2.70;;;29.40;46.20;;;;;;5052542;28;20032;-74
2021/08/07 12:45:58;;;;;;;2.97;2.60;;;29.20;46.90;;;;;;5053541;28;20481;-76